Club Med II — FNIR — position and weather

sailwx.info

Track history (hours):
 
Tides and Currents Weather Stations Pressure Air Temp Water Temp Dewpoint Dewpoint Depression Visibility Wind Speed Wind Dir Waves Ship Positions

Club Med II

Operator: V.Ships Leisure S.A.M

Last reported at 2019-Jul-20 01:30 UTC. Time now 2019-Jul-20 01:42 UTC.
Position N 37°47' E 023°42'.

Length 187 m; draft 5.4 m.

Type: Ship. MMSI: 227194000.

Date/timePositionNaut miles runAvg speedWind from/ knotsBaromVisibWave heightAir tempDewpointWater temp
2019-Jul-20 01:30N 37°47' E 023°42'4 7.9
2019-Jul-20 01:00N 37°43' E 023°44'4 8.4
2019-Jul-20 00:30N 37°39' E 023°46'4 8.5
2019-Jul-20 00:00N 37°36' E 023°48'4 8.1
2019-Jul-19 23:30N 37°31' E 023°49'4 8.6
2019-Jul-19 23:00N 37°27' E 023°49'4 8.6
2019-Jul-19 22:29N 37°23' E 023°48'21 5.0
2019-Jul-19 18:12N 37°10' E 023°27'210.0
2019-Jul-19 17:59N 37°11' E 023°25'510.1
2019-Jul-19 17:29N 37°14' E 023°20'6 4.1
2019-Jul-19 16:07N 37°19' E 023°21'1 5.4
2019-Jul-19 15:58N 37°20' E 023°22'2 5.0
2019-Jul-19 15:30N 37°21' E 023°25'2 4.2
2019-Jul-19 15:00N 37°21' E 023°27'0 0.1
2019-Jul-19 14:30N 37°21' E 023°27'0 0.1
2019-Jul-19 14:00N 37°21' E 023°27'0 0.0
2019-Jul-19 13:30N 37°21' E 023°27'0 0.1
2019-Jul-19 12:51N 37°21' E 023°27'0 0.1
2019-Jul-19 12:24N 37°21' E 023°27'0 0.1
2019-Jul-19 11:45N 37°21' E 023°27'0 0.1
2019-Jul-19 11:27N 37°21' E 023°27'0 0.0
2019-Jul-19 10:00N 37°21' E 023°27'0 0.0
2019-Jul-19 09:30N 37°21' E 023°27'0 0.1
2019-Jul-19 09:00N 37°21' E 023°27'0 0.1
2019-Jul-19 08:27N 37°21' E 023°27'0 0.1
2019-Jul-19 07:54N 37°21' E 023°27'0 0.1
2019-Jul-19 07:27N 37°21' E 023°27'0 0.0
2019-Jul-19 06:57N 37°21' E 023°27'0 0.1
2019-Jul-19 06:30N 37°21' E 023°27'0 0.0
2019-Jul-19 06:00N 37°21' E 023°27'0 0.0
2019-Jul-19 05:30N 37°21' E 023°27'0 0.0
2019-Jul-19 04:56N 37°21' E 023°27'0 0.1
2019-Jul-19 04:30N 37°21' E 023°27'2 4.6
2019-Jul-19 04:00N 37°21' E 023°24'2 4.8
2019-Jul-19 03:30N 37°19' E 023°22'7 4.8
2019-Jul-19 01:56N 37°15' E 023°14'2 5.1
2019-Jul-19 01:30N 37°13' E 023°14'2 5.0
2019-Jul-19 01:00N 37°10' E 023°13'2 3.7
2019-Jul-19 00:29N 37°08' E 023°13'2 2.7
2019-Jul-18 23:52N 37°07' E 023°12'1 2.1
2019-Jul-18 23:27N 37°06' E 023°12'1 2.6
2019-Jul-18 23:01N 37°05' E 023°12'2 4.0
2019-Jul-18 22:30N 37°03' E 023°11'3 6.5
2019-Jul-18 22:00N 37°05' E 023°07'4 6.5
2019-Jul-18 21:21N 37°08' E 023°05'4 6.2
2019-Jul-18 20:45N 37°12' E 023°02'2 6.0
2019-Jul-18 20:23N 37°13' E 023°01'2 6.2
2019-Jul-18 20:00N 37°16' E 022°59'16 4.9
2019-Jul-18 16:50N 37°29' E 022°49'14 0.9
2019-Jul-18 02:10N 37°17' E 022°58'1 7.7
2019-Jul-18 02:00N 37°16' E 022°59'14 8.5
2019-Jul-18 00:18N 37°03' E 023°08'3 8.5
2019-Jul-17 23:59N 37°01' E 023°09'  
2019-Jul-15 16:16N 37°35' E 016°23'914.6
2019-Jul-15 15:40N 37°35' E 016°13'314.4
2019-Jul-15 15:28N 37°35' E 016°09'714.5
2019-Jul-15 15:00N 37°35' E 016°00'1014.5
2019-Jul-15 14:19N 37°39' E 015°49'414.6
2019-Jul-15 14:00N 37°41' E 015°43'714.2
2019-Jul-15 13:30N 37°43' E 015°35'713.9
2019-Jul-15 13:00N 37°46' E 015°27'13 1.5
2019-Jul-15 04:07N 37°60' E 015°27'2 8.9
2019-Jul-15 03:50N 38°02' E 015°29'3 9.0
2019-Jul-15 03:30N 38°04' E 015°31'510.4
2019-Jul-15 03:01N 38°09' E 015°34'510.5
2019-Jul-15 02:30N 38°14' E 015°36'4 9.1
2019-Jul-15 02:00N 38°17' E 015°40'510.1
2019-Jul-15 01:30N 38°22' E 015°38'5 9.8
2019-Jul-15 01:00N 38°26' E 015°36'5 9.9
2019-Jul-15 00:30N 38°30' E 015°32'510.2
2019-Jul-15 00:01N 38°35' E 015°29'510.3
2019-Jul-14 23:30N 38°39' E 015°26'5 9.7
2019-Jul-14 23:00N 38°43' E 015°23'5 9.6
2019-Jul-14 22:30N 38°48' E 015°20'8 3.7
2019-Jul-14 20:25N 38°49' E 015°10'4 3.8
2019-Jul-14 19:25N 38°46' E 015°08'4 8.3
2019-Jul-14 18:59N 38°43' E 015°05'5 8.6
2019-Jul-14 18:23N 38°39' E 015°01'3 8.4
2019-Jul-14 18:00N 38°36' E 015°01'5 9.5
2019-Jul-14 17:30N 38°31' E 014°60'4 4.9
2019-Jul-14 16:46N 38°28' E 014°58'0 0.1
2019-Jul-14 16:22N 38°28' E 014°58'0 0.0
2019-Jul-14 15:07N 38°28' E 014°58'0 0.1
2019-Jul-14 14:52N 38°28' E 014°58'0 0.0
2019-Jul-14 14:16N 38°28' E 014°58'0 0.0
2019-Jul-14 13:43N 38°28' E 014°58'0 0.0
2019-Jul-14 13:25N 38°28' E 014°58'0 0.0
2019-Jul-14 12:49N 38°28' E 014°58'0 0.1
2019-Jul-14 12:16N 38°28' E 014°58'0 0.0
2019-Jul-14 11:34N 38°28' E 014°58'0 0.1
2019-Jul-14 11:22N 38°28' E 014°58'0 0.1
2019-Jul-14 10:58N 38°28' E 014°58'0 0.0
2019-Jul-14 09:55N 38°28' E 014°58'0 0.1
2019-Jul-14 09:22N 38°28' E 014°58'0 0.0
2019-Jul-14 08:58N 38°28' E 014°58'0 0.0
2019-Jul-14 08:28N 38°28' E 014°58'0 0.0
2019-Jul-14 06:46N 38°28' E 014°58'0 0.1
2019-Jul-14 06:30N 38°28' E 014°58'2 3.7
2019-Jul-14 06:00N 38°29' E 014°60'712.9
2019-Jul-14 05:30N 38°35' E 014°58'713.6
2019-Jul-14 05:00N 38°42' E 014°55'8715.0
2019-Jul-13 23:13N 40°06' E 014°27'315.4
2019-Jul-13 23:00N 40°09' E 014°26'815.3
2019-Jul-13 22:30N 40°16' E 014°23'815.2
2019-Jul-13 22:00N 40°24' E 014°21'815.3
2019-Jul-13 21:30N 40°31' E 014°18'815.4
2019-Jul-13 21:00N 40°39' E 014°17'815.4
2019-Jul-13 20:30N 40°47' E 014°17'4 8.0
2019-Jul-13 20:00N 40°51' E 014°16'0 0.0
2019-Jul-13 19:30N 40°51' E 014°16'0 0.0
2019-Jul-13 19:00N 40°51' E 014°16'0 0.0
2019-Jul-13 18:30N 40°51' E 014°16'0 0.0
2019-Jul-13 18:00N 40°51' E 014°16'0 0.0
2019-Jul-13 17:30N 40°51' E 014°16'0 0.0
2019-Jul-13 17:00N 40°51' E 014°16'0 0.0
2019-Jul-13 16:30N 40°51' E 014°16'0 0.0
2019-Jul-13 16:00N 40°51' E 014°16'0 0.0
2019-Jul-13 15:30N 40°51' E 014°16'0 0.0
2019-Jul-13 15:00N 40°51' E 014°16'0 0.0
2019-Jul-13 14:30N 40°51' E 014°16'0 0.0
2019-Jul-13 14:00N 40°51' E 014°16'0 0.0
2019-Jul-13 13:30N 40°51' E 014°16'0 0.0
2019-Jul-13 13:00N 40°51' E 014°16'0 0.0
2019-Jul-13 12:30N 40°51' E 014°16'0 0.0
2019-Jul-13 12:00N 40°51' E 014°16'0 0.0
2019-Jul-13 11:30N 40°51' E 014°16'0 0.0
2019-Jul-13 11:00N 40°51' E 014°16'0 0.0
2019-Jul-13 10:30N 40°51' E 014°16'0 0.0
2019-Jul-13 10:00N 40°51' E 014°16'0 0.0
2019-Jul-13 09:30N 40°51' E 014°16'0 0.0
2019-Jul-13 09:00N 40°51' E 014°16'0 0.0
2019-Jul-13 08:30N 40°51' E 014°16'0 0.0
2019-Jul-13 08:00N 40°51' E 014°16'0 0.0
2019-Jul-13 07:30N 40°51' E 014°16'0 0.0
2019-Jul-13 07:00N 40°51' E 014°16'0 0.0
2019-Jul-13 06:30N 40°51' E 014°16'0 0.0
2019-Jul-13 06:00N 40°51' E 014°16'0 0.0
2019-Jul-13 05:30N 40°51' E 014°16'0 0.0
2019-Jul-13 05:00N 40°51' E 014°16'0 0.0
2019-Jul-13 04:30N 40°51' E 014°16'0 0.0
2019-Jul-13 04:00N 40°51' E 014°16'0 0.0
2019-Jul-13 03:30N 40°51' E 014°16'0 0.0
2019-Jul-13 03:00N 40°51' E 014°16'0 0.0
2019-Jul-13 02:30N 40°51' E 014°16'0 0.0
2019-Jul-13 01:57N 40°51' E 014°16'0 0.0
2019-Jul-13 01:30N 40°51' E 014°16'0 0.0
2019-Jul-13 01:00N 40°51' E 014°16'0 0.0
2019-Jul-13 00:30N 40°51' E 014°16'0 0.0
2019-Jul-13 00:00N 40°51' E 014°16'0 0.0
2019-Jul-12 23:30N 40°51' E 014°16'0 0.0
2019-Jul-12 23:00N 40°51' E 014°16'0 0.0
2019-Jul-12 22:30N 40°51' E 014°16'0 0.0
2019-Jul-12 22:00N 40°51' E 014°16'0 0.0
2019-Jul-12 21:30N 40°51' E 014°16'0 0.0
2019-Jul-12 21:00N 40°51' E 014°16'0 0.0
2019-Jul-12 20:30N 40°51' E 014°16'0 0.0
2019-Jul-12 20:00N 40°51' E 014°16'0 0.0
2019-Jul-12 19:30N 40°51' E 014°16'0 0.0
2019-Jul-12 19:00N 40°51' E 014°16'0 0.0
2019-Jul-12 18:30N 40°51' E 014°16'0 0.0
2019-Jul-12 18:00N 40°51' E 014°16'0 0.0
2019-Jul-12 17:30N 40°51' E 014°16'0 0.0
2019-Jul-12 16:57N 40°51' E 014°16'0 0.0
2019-Jul-12 16:30N 40°51' E 014°16'0 0.0
2019-Jul-12 16:00N 40°51' E 014°16'0 0.0
2019-Jul-12 15:27N 40°51' E 014°16'0 0.0
2019-Jul-12 15:00N 40°51' E 014°16'0 0.0
2019-Jul-12 14:30N 40°51' E 014°16'0 0.0
2019-Jul-12 14:00N 40°51' E 014°16'0 0.0
2019-Jul-12 13:27N 40°51' E 014°16'0 0.0
2019-Jul-12 13:00N 40°51' E 014°16'0 0.0
2019-Jul-12 12:30N 40°51' E 014°16'0 0.0
2019-Jul-12 12:00N 40°51' E 014°16'0 0.0
2019-Jul-12 11:30N 40°51' E 014°16'0 0.0
2019-Jul-12 11:00N 40°51' E 014°16'0 0.0
2019-Jul-12 10:30N 40°51' E 014°16'0 0.0
2019-Jul-12 10:00N 40°51' E 014°16'0 0.0
2019-Jul-12 09:30N 40°51' E 014°16'0 0.0
2019-Jul-12 09:00N 40°51' E 014°16'0 0.0
2019-Jul-12 08:30N 40°51' E 014°16'0 0.0
2019-Jul-12 08:00N 40°51' E 014°16'0 0.0
2019-Jul-12 07:30N 40°51' E 014°16'0 0.0
2019-Jul-12 07:00N 40°51' E 014°16'0 0.0
2019-Jul-12 06:27N 40°51' E 014°16'0 0.0
2019-Jul-12 06:00N 40°51' E 014°16'0 0.6
2019-Jul-12 05:31N 40°50' E 014°16'3 5.7
2019-Jul-12 05:00N 40°48' E 014°17'3 6.0
2019-Jul-12 04:30N 40°45' E 014°16'3 5.8
2019-Jul-12 04:00N 40°42' E 014°15'3 6.0
2019-Jul-12 03:30N 40°41' E 014°11'3 6.0
2019-Jul-12 03:00N 40°39' E 014°08'3 5.9
2019-Jul-12 02:30N 40°38' E 014°04'6 6.1
2019-Jul-12 01:30N 40°36' E 013°57'3 6.0
2019-Jul-12 01:00N 40°34' E 013°53'3 5.8
2019-Jul-12 00:30N 40°35' E 013°50'3 6.3
2019-Jul-12 00:00N 40°36' E 013°46'3 6.2
2019-Jul-11 23:30N 40°37' E 013°42'3 6.2
2019-Jul-11 23:00N 40°38' E 013°38'3 6.2
2019-Jul-11 22:30N 40°39' E 013°34'3 6.3
2019-Jul-11 22:00N 40°40' E 013°30'17 5.5
2019-Jul-11 18:59N 40°46' E 013°10'126 5.4
2019-Jul-10 19:34N 41°22' E 010°30'  
Track history (hours):
 
Tides and Currents Weather Stations Pressure Air Temp Water Temp Dewpoint Dewpoint Depression Visibility Wind Speed Wind Dir Waves Ship Positions

Club Med II

Operator: V.Ships Leisure S.A.M

Last reported at 2019-Jul-20 01:30 UTC. Time now 2019-Jul-20 01:42 UTC.
Position N 37°47' E 023°42'.

Length 187 m; draft 5.4 m.

Type: Ship. MMSI: 227194000.

Date/timePositionNaut miles runAvg speedWind from/ knotsBaromVisibWave heightAir tempDewpointWater temp
2019-Jul-20 01:30N 37°47' E 023°42'4 7.9
2019-Jul-20 01:00N 37°43' E 023°44'4 8.4
2019-Jul-20 00:30N 37°39' E 023°46'4 8.5
2019-Jul-20 00:00N 37°36' E 023°48'4 8.1
2019-Jul-19 23:30N 37°31' E 023°49'4 8.6
2019-Jul-19 23:00N 37°27' E 023°49'4 8.6
2019-Jul-19 22:29N 37°23' E 023°48'21 5.0
2019-Jul-19 18:12N 37°10' E 023°27'210.0
2019-Jul-19 17:59N 37°11' E 023°25'510.1
2019-Jul-19 17:29N 37°14' E 023°20'6 4.1
2019-Jul-19 16:07N 37°19' E 023°21'1 5.4
2019-Jul-19 15:58N 37°20' E 023°22'2 5.0
2019-Jul-19 15:30N 37°21' E 023°25'2 4.2
2019-Jul-19 15:00N 37°21' E 023°27'0 0.1
2019-Jul-19 14:30N 37°21' E 023°27'0 0.1
2019-Jul-19 14:00N 37°21' E 023°27'0 0.0
2019-Jul-19 13:30N 37°21' E 023°27'0 0.1
2019-Jul-19 12:51N 37°21' E 023°27'0 0.1
2019-Jul-19 12:24N 37°21' E 023°27'0 0.1
2019-Jul-19 11:45N 37°21' E 023°27'0 0.1
2019-Jul-19 11:27N 37°21' E 023°27'0 0.0
2019-Jul-19 10:00N 37°21' E 023°27'0 0.0
2019-Jul-19 09:30N 37°21' E 023°27'0 0.1
2019-Jul-19 09:00N 37°21' E 023°27'0 0.1
2019-Jul-19 08:27N 37°21' E 023°27'0 0.1
2019-Jul-19 07:54N 37°21' E 023°27'0 0.1
2019-Jul-19 07:27N 37°21' E 023°27'0 0.0
2019-Jul-19 06:57N 37°21' E 023°27'0 0.1
2019-Jul-19 06:30N 37°21' E 023°27'0 0.0
2019-Jul-19 06:00N 37°21' E 023°27'0 0.0
2019-Jul-19 05:30N 37°21' E 023°27'0 0.0
2019-Jul-19 04:56N 37°21' E 023°27'0 0.1
2019-Jul-19 04:30N 37°21' E 023°27'2 4.6
2019-Jul-19 04:00N 37°21' E 023°24'2 4.8
2019-Jul-19 03:30N 37°19' E 023°22'7 4.8
2019-Jul-19 01:56N 37°15' E 023°14'2 5.1
2019-Jul-19 01:30N 37°13' E 023°14'2 5.0
2019-Jul-19 01:00N 37°10' E 023°13'2 3.7
2019-Jul-19 00:29N 37°08' E 023°13'2 2.7
2019-Jul-18 23:52N 37°07' E 023°12'1 2.1
2019-Jul-18 23:27N 37°06' E 023°12'1 2.6
2019-Jul-18 23:01N 37°05' E 023°12'2 4.0
2019-Jul-18 22:30N 37°03' E 023°11'3 6.5
2019-Jul-18 22:00N 37°05' E 023°07'4 6.5
2019-Jul-18 21:21N 37°08' E 023°05'4 6.2
2019-Jul-18 20:45N 37°12' E 023°02'2 6.0
2019-Jul-18 20:23N 37°13' E 023°01'2 6.2
2019-Jul-18 20:00N 37°16' E 022°59'16 4.9
2019-Jul-18 16:50N 37°29' E 022°49'14 0.9
2019-Jul-18 02:10N 37°17' E 022°58'1 7.7
2019-Jul-18 02:00N 37°16' E 022°59'14 8.5
2019-Jul-18 00:18N 37°03' E 023°08'3 8.5
2019-Jul-17 23:59N 37°01' E 023°09'  
2019-Jul-15 16:16N 37°35' E 016°23'914.6
2019-Jul-15 15:40N 37°35' E 016°13'314.4
2019-Jul-15 15:28N 37°35' E 016°09'714.5
2019-Jul-15 15:00N 37°35' E 016°00'1014.5
2019-Jul-15 14:19N 37°39' E 015°49'414.6
2019-Jul-15 14:00N 37°41' E 015°43'714.2
2019-Jul-15 13:30N 37°43' E 015°35'713.9
2019-Jul-15 13:00N 37°46' E 015°27'13 1.5
2019-Jul-15 04:07N 37°60' E 015°27'2 8.9
2019-Jul-15 03:50N 38°02' E 015°29'3 9.0
2019-Jul-15 03:30N 38°04' E 015°31'510.4
2019-Jul-15 03:01N 38°09' E 015°34'510.5
2019-Jul-15 02:30N 38°14' E 015°36'4 9.1
2019-Jul-15 02:00N 38°17' E 015°40'510.1
2019-Jul-15 01:30N 38°22' E 015°38'5 9.8
2019-Jul-15 01:00N 38°26' E 015°36'5 9.9
2019-Jul-15 00:30N 38°30' E 015°32'510.2
2019-Jul-15 00:01N 38°35' E 015°29'510.3
2019-Jul-14 23:30N 38°39' E 015°26'5 9.7
2019-Jul-14 23:00N 38°43' E 015°23'5 9.6
2019-Jul-14 22:30N 38°48' E 015°20'8 3.7
2019-Jul-14 20:25N 38°49' E 015°10'4 3.8
2019-Jul-14 19:25N 38°46' E 015°08'4 8.3
2019-Jul-14 18:59N 38°43' E 015°05'5 8.6
2019-Jul-14 18:23N 38°39' E 015°01'3 8.4
2019-Jul-14 18:00N 38°36' E 015°01'5 9.5
2019-Jul-14 17:30N 38°31' E 014°60'4 4.9
2019-Jul-14 16:46N 38°28' E 014°58'0 0.1
2019-Jul-14 16:22N 38°28' E 014°58'0 0.0
2019-Jul-14 15:07N 38°28' E 014°58'0 0.1
2019-Jul-14 14:52N 38°28' E 014°58'0 0.0
2019-Jul-14 14:16N 38°28' E 014°58'0 0.0
2019-Jul-14 13:43N 38°28' E 014°58'0 0.0
2019-Jul-14 13:25N 38°28' E 014°58'0 0.0
2019-Jul-14 12:49N 38°28' E 014°58'0 0.1
2019-Jul-14 12:16N 38°28' E 014°58'0 0.0
2019-Jul-14 11:34N 38°28' E 014°58'0 0.1
2019-Jul-14 11:22N 38°28' E 014°58'0 0.1
2019-Jul-14 10:58N 38°28' E 014°58'0 0.0
2019-Jul-14 09:55N 38°28' E 014°58'0 0.1
2019-Jul-14 09:22N 38°28' E 014°58'0 0.0
2019-Jul-14 08:58N 38°28' E 014°58'0 0.0
2019-Jul-14 08:28N 38°28' E 014°58'0 0.0
2019-Jul-14 06:46N 38°28' E 014°58'0 0.1
2019-Jul-14 06:30N 38°28' E 014°58'2 3.7
2019-Jul-14 06:00N 38°29' E 014°60'712.9
2019-Jul-14 05:30N 38°35' E 014°58'713.6
2019-Jul-14 05:00N 38°42' E 014°55'8715.0
2019-Jul-13 23:13N 40°06' E 014°27'315.4
2019-Jul-13 23:00N 40°09' E 014°26'815.3
2019-Jul-13 22:30N 40°16' E 014°23'815.2
2019-Jul-13 22:00N 40°24' E 014°21'815.3
2019-Jul-13 21:30N 40°31' E 014°18'815.4
2019-Jul-13 21:00N 40°39' E 014°17'815.4
2019-Jul-13 20:30N 40°47' E 014°17'4 8.0
2019-Jul-13 20:00N 40°51' E 014°16'0 0.0
2019-Jul-13 19:30N 40°51' E 014°16'0 0.0
2019-Jul-13 19:00N 40°51' E 014°16'0 0.0
2019-Jul-13 18:30N 40°51' E 014°16'0 0.0
2019-Jul-13 18:00N 40°51' E 014°16'0 0.0
2019-Jul-13 17:30N 40°51' E 014°16'0 0.0
2019-Jul-13 17:00N 40°51' E 014°16'0 0.0
2019-Jul-13 16:30N 40°51' E 014°16'0 0.0
2019-Jul-13 16:00N 40°51' E 014°16'0 0.0
2019-Jul-13 15:30N 40°51' E 014°16'0 0.0
2019-Jul-13 15:00N 40°51' E 014°16'0 0.0
2019-Jul-13 14:30N 40°51' E 014°16'0 0.0
2019-Jul-13 14:00N 40°51' E 014°16'0 0.0
2019-Jul-13 13:30N 40°51' E 014°16'0 0.0
2019-Jul-13 13:00N 40°51' E 014°16'0 0.0
2019-Jul-13 12:30N 40°51' E 014°16'0 0.0
2019-Jul-13 12:00N 40°51' E 014°16'0 0.0
2019-Jul-13 11:30N 40°51' E 014°16'0 0.0
2019-Jul-13 11:00N 40°51' E 014°16'0 0.0
2019-Jul-13 10:30N 40°51' E 014°16'0 0.0
2019-Jul-13 10:00N 40°51' E 014°16'0 0.0
2019-Jul-13 09:30N 40°51' E 014°16'0 0.0
2019-Jul-13 09:00N 40°51' E 014°16'0 0.0
2019-Jul-13 08:30N 40°51' E 014°16'0 0.0
2019-Jul-13 08:00N 40°51' E 014°16'0 0.0
2019-Jul-13 07:30N 40°51' E 014°16'0 0.0
2019-Jul-13 07:00N 40°51' E 014°16'0 0.0
2019-Jul-13 06:30N 40°51' E 014°16'0 0.0
2019-Jul-13 06:00N 40°51' E 014°16'0 0.0
2019-Jul-13 05:30N 40°51' E 014°16'0 0.0
2019-Jul-13 05:00N 40°51' E 014°16'0 0.0
2019-Jul-13 04:30N 40°51' E 014°16'0 0.0
2019-Jul-13 04:00N 40°51' E 014°16'0 0.0
2019-Jul-13 03:30N 40°51' E 014°16'0 0.0
2019-Jul-13 03:00N 40°51' E 014°16'0 0.0
2019-Jul-13 02:30N 40°51' E 014°16'0 0.0
2019-Jul-13 01:57N 40°51' E 014°16'0 0.0
2019-Jul-13 01:30N 40°51' E 014°16'0 0.0
2019-Jul-13 01:00N 40°51' E 014°16'0 0.0
2019-Jul-13 00:30N 40°51' E 014°16'0 0.0
2019-Jul-13 00:00N 40°51' E 014°16'0 0.0
2019-Jul-12 23:30N 40°51' E 014°16'0 0.0
2019-Jul-12 23:00N 40°51' E 014°16'0 0.0
2019-Jul-12 22:30N 40°51' E 014°16'0 0.0
2019-Jul-12 22:00N 40°51' E 014°16'0 0.0
2019-Jul-12 21:30N 40°51' E 014°16'0 0.0
2019-Jul-12 21:00N 40°51' E 014°16'0 0.0
2019-Jul-12 20:30N 40°51' E 014°16'0 0.0
2019-Jul-12 20:00N 40°51' E 014°16'0 0.0
2019-Jul-12 19:30N 40°51' E 014°16'0 0.0
2019-Jul-12 19:00N 40°51' E 014°16'0 0.0
2019-Jul-12 18:30N 40°51' E 014°16'0 0.0
2019-Jul-12 18:00N 40°51' E 014°16'0 0.0
2019-Jul-12 17:30N 40°51' E 014°16'0 0.0
2019-Jul-12 16:57N 40°51' E 014°16'0 0.0
2019-Jul-12 16:30N 40°51' E 014°16'0 0.0
2019-Jul-12 16:00N 40°51' E 014°16'0 0.0
2019-Jul-12 15:27N 40°51' E 014°16'0 0.0
2019-Jul-12 15:00N 40°51' E 014°16'0 0.0
2019-Jul-12 14:30N 40°51' E 014°16'0 0.0
2019-Jul-12 14:00N 40°51' E 014°16'0 0.0
2019-Jul-12 13:27N 40°51' E 014°16'0 0.0
2019-Jul-12 13:00N 40°51' E 014°16'0 0.0
2019-Jul-12 12:30N 40°51' E 014°16'0 0.0
2019-Jul-12 12:00N 40°51' E 014°16'0 0.0
2019-Jul-12 11:30N 40°51' E 014°16'0 0.0
2019-Jul-12 11:00N 40°51' E 014°16'0 0.0
2019-Jul-12 10:30N 40°51' E 014°16'0 0.0
2019-Jul-12 10:00N 40°51' E 014°16'0 0.0
2019-Jul-12 09:30N 40°51' E 014°16'0 0.0
2019-Jul-12 09:00N 40°51' E 014°16'0 0.0
2019-Jul-12 08:30N 40°51' E 014°16'0 0.0
2019-Jul-12 08:00N 40°51' E 014°16'0 0.0
2019-Jul-12 07:30N 40°51' E 014°16'0 0.0
2019-Jul-12 07:00N 40°51' E 014°16'0 0.0
2019-Jul-12 06:27N 40°51' E 014°16'0 0.0
2019-Jul-12 06:00N 40°51' E 014°16'0 0.6
2019-Jul-12 05:31N 40°50' E 014°16'3 5.7
2019-Jul-12 05:00N 40°48' E 014°17'3 6.0
2019-Jul-12 04:30N 40°45' E 014°16'3 5.8
2019-Jul-12 04:00N 40°42' E 014°15'3 6.0
2019-Jul-12 03:30N 40°41' E 014°11'3 6.0
2019-Jul-12 03:00N 40°39' E 014°08'3 5.9
2019-Jul-12 02:30N 40°38' E 014°04'6 6.1
2019-Jul-12 01:30N 40°36' E 013°57'3 6.0
2019-Jul-12 01:00N 40°34' E 013°53'3 5.8
2019-Jul-12 00:30N 40°35' E 013°50'3 6.3
2019-Jul-12 00:00N 40°36' E 013°46'3 6.2
2019-Jul-11 23:30N 40°37' E 013°42'3 6.2
2019-Jul-11 23:00N 40°38' E 013°38'3 6.2
2019-Jul-11 22:30N 40°39' E 013°34'3 6.3
2019-Jul-11 22:00N 40°40' E 013°30'17 5.5
2019-Jul-11 18:59N 40°46' E 013°10'126 5.4
2019-Jul-10 19:34N 41°22' E 010°30'  

Dump ship's entire track history